Andoya, Norway

12:13 PM CEST on October 25, 2014 (GMT +0200)
Andoya Air Base | Change Station
CLOSE
Current Station
Airport
Location: Andoya,
Elevation: 43 ft
Nearby Weather Stations

Elev 43 ft 69.29 °N, 16.14 °E | Updated 23 minutes ago

Light Rain
Light Rain
43 °F
Feels Like 38 °F
N
9
Wind Variable Wind from SSE

Today
High -- | Low -- °F
--% Chance of Precip.
Yesterday
High -- | Low -- °F
Precip. -- in
8:46 AM 4:31 PM
New Moon, 2% visible
Pressure 29.53 in
Visibility 6.2 miles
Clouds Few 2000 ft
Mostly Cloudy 4000 ft
Windchill 38 °F
Dew Point 41 °F
Humidity 93%
Rainfall 0.00 in
Snow Depth Not available.
UV 0 out of 12
Pollen Not available.
Air Quality Not available.
Flu Activity Not available.
METAR ENAN 250950Z 15008KT 9999 -RA FEW020 BKN040 06/05 Q1000

More Conditions Fewer Conditions

Pressure 29.53 in
Visibility 6.2 miles
Clouds Few 2000 ft
Mostly Cloudy 4000 ft
Windchill 38 °F
Dew Point 41 °F
Humidity 93%
Rainfall 0.00 in
Snow Depth Not available.
UV 0 out of 12
Pollen Not available.
Air Quality Not available.
Flu Activity Not available.
METAR ENAN 250950Z 15008KT 9999 -RA FEW020 BKN040 06/05 Q1000

More Conditions Fewer Conditions

10-Day Weather Forecast

Almanac

Astronomy

Oct. 25, 2014 Rise Set
Actual Time 8:46 AM CEST 4:31 PM CEST
Civil Twilight 7:40 AM CEST 5:36 PM CEST
Nautical Twilight 6:31 AM CEST 6:45 PM CEST
Astronomical Twilight 5:22 AM CEST 7:54 PM CEST
Moon 10:52 AM CEST 4:50 PM CEST
Length of Visible Light 9h 56m
Length of Day
7h 45m
Tomorrow will be 8m 58s shorter.
New Moon, 2% of the Moon is Illuminated
Today
New Moon
Oct 30
First Quarter
Nov 6
Full
Nov 14
Last Quarter
Nov 22
New

Yesterday's Extremes

Country Highs Country Lows

Community

WunderPhotos

Upload Photos

1,764,796 photos uploaded!

Nearby

Snow Depth

Not available.

Earthquake Activity

City Distance Mag. Time & Date
No recent earthquake activity has been reported nearby.
Minimum magnitude displayed is 2.5.

Coastal Water Temperatures

Place Temperature
No Stations Reporting

Nearby Weather Stations